Time;durP1;ratioP1;P1;durP2;ratioP2;P2;SDS_P1;SDS_P2;PMS_P1;PMS_P2;Temp;Humidity;BMP_temperature;BMP_pressure;BME280_temperature;BME280_humidity;BME280_pressure;Samples;Min_cycle;Max_cycle;Signal;HPM_P1;HPM_P2
2022/11/28 00:01:30;;;;;;;13.82;5.78;;;9.40;99.90;;;;;;4985317;28;20064;-74
2022/11/28 00:03:56;;;;;;;10.45;5.80;;;9.40;99.90;;;;;;4984318;28;20050;-74
2022/11/28 00:06:22;;;;;;;10.18;6.25;;;9.30;99.90;;;;;;4998384;28;20510;-74
2022/11/28 00:08:47;;;;;;;10.32;5.80;;;9.40;99.90;;;;;;4985361;28;20108;-75
2022/11/28 00:11:15;;;;;;;8.82;5.00;;;9.30;99.90;;;;;;4984934;28;20030;-77
2022/11/28 00:13:41;;;;;;;8.25;5.15;;;9.30;99.90;;;;;;4985839;28;20019;-73
2022/11/28 00:16:08;;;;;;;12.88;4.72;;;9.20;99.90;;;;;;4986587;28;20446;-73
2022/11/28 00:18:39;;;;;;;8.95;5.65;;;9.30;99.90;;;;;;4985932;28;20434;-74
2022/11/28 00:21:10;;;;;;;8.05;4.95;;;9.30;99.90;;;;;;4985170;28;20027;-75
2022/11/28 00:23:36;;;;;;;7.63;4.82;;;9.30;99.90;;;;;;4984668;28;20124;-70
2022/11/28 00:26:13;;;;;;;8.88;4.85;;;9.30;99.90;;;;;;4982653;28;20027;-74
2022/11/28 00:28:39;;;;;;;7.80;5.30;;;9.30;99.90;;;;;;4982161;28;20467;-75
2022/11/28 00:31:05;;;;;;;8.43;4.90;;;9.20;99.90;;;;;;4986373;28;20514;-74
2022/11/28 00:33:34;;;;;;;7.70;4.43;;;9.20;99.90;;;;;;4984137;28;20022;-72
2022/11/28 00:36:05;;;;;;;9.23;4.70;;;9.20;99.90;;;;;;4986204;28;20037;-74
2022/11/28 00:38:33;;;;;;;8.38;5.10;;;9.20;99.90;;;;;;4985970;28;20031;-76
2022/11/28 00:41:10;;;;;;;11.32;5.07;;;9.30;99.90;;;;;;4984312;28;20018;-73
2022/11/28 00:43:36;;;;;;;9.27;5.25;;;9.20;99.90;;;;;;4982298;28;20034;-77
2022/11/28 00:46:02;;;;;;;7.15;4.30;;;9.30;99.90;;;;;;4983545;28;20047;-74
2022/11/28 00:48:31;;;;;;;7.75;4.82;;;9.20;99.90;;;;;;4984004;28;20703;-72
2022/11/28 00:51:06;;;;;;;11.10;5.25;;;9.30;99.90;;;;;;4983598;28;20140;-73
2022/11/28 00:53:31;;;;;;;11.43;5.30;;;9.30;99.90;;;;;;4982557;28;20065;-72
2022/11/28 00:55:57;;;;;;;7.68;4.93;;;9.30;99.90;;;;;;4985749;28;20061;-75
2022/11/28 00:58:25;;;;;;;8.13;5.53;;;9.30;99.90;;;;;;4982611;28;20038;-75
2022/11/28 01:00:53;;;;;;;9.15;5.40;;;9.30;99.90;;;;;;4983853;28;20069;-75
2022/11/28 01:03:19;;;;;;;12.13;5.93;;;9.40;99.90;;;;;;4982552;28;20109;-75
2022/11/28 01:05:44;;;;;;;8.13;4.88;;;9.30;99.90;;;;;;4984414;28;20204;-72
2022/11/28 01:08:15;;;;;;;8.80;5.18;;;9.30;99.90;;;;;;4985546;28;20091;-73
2022/11/28 01:10:43;;;;;;;13.75;5.30;;;9.20;99.90;;;;;;4989035;28;20042;-77
2022/11/28 01:13:09;;;;;;;9.40;5.28;;;9.30;99.90;;;;;;4988391;28;20038;-74
2022/11/28 01:15:38;;;;;;;10.40;5.15;;;9.30;99.90;;;;;;4989841;28;20027;-71
2022/11/28 01:18:04;;;;;;;8.80;5.00;;;9.40;99.90;;;;;;4986358;28;20030;-74
2022/11/28 01:20:32;;;;;;;6.63;5.18;;;9.30;99.90;;;;;;4985663;28;20019;-74
2022/11/28 01:22:58;;;;;;;7.88;4.68;;;9.20;99.90;;;;;;4985366;28;20312;-75
2022/11/28 01:25:26;;;;;;;6.97;4.72;;;9.30;99.90;;;;;;4986298;28;20099;-73
2022/11/28 01:27:51;;;;;;;8.65;4.72;;;9.40;99.90;;;;;;4980797;28;20075;-72
2022/11/28 01:30:17;;;;;;;6.10;4.63;;;9.40;99.90;;;;;;4984436;28;20034;-73
2022/11/28 01:32:45;;;;;;;7.45;4.50;;;9.30;99.90;;;;;;4984326;28;20439;-75
2022/11/28 01:35:11;;;;;;;6.13;4.53;;;9.40;99.90;;;;;;4986121;28;20399;-74
2022/11/28 01:37:37;;;;;;;8.88;4.57;;;9.40;99.90;;;;;;4987934;28;20022;-78
2022/11/28 01:40:03;;;;;;;7.10;4.63;;;9.50;99.90;;;;;;4984528;28;20026;-75
2022/11/28 01:42:29;;;;;;;6.45;4.53;;;9.50;99.90;;;;;;4987390;28;20026;-73
2022/11/28 01:44:56;;;;;;;5.32;4.20;;;9.40;99.90;;;;;;4989807;28;20026;-73
2022/11/28 01:47:25;;;;;;;8.30;4.63;;;9.40;99.90;;;;;;4998634;28;20029;-74
2022/11/28 01:49:52;;;;;;;7.95;4.82;;;9.40;99.90;;;;;;4984376;28;20431;-74
2022/11/28 01:52:20;;;;;;;8.75;4.93;;;9.50;99.90;;;;;;4979942;28;20447;-74
2022/11/28 01:54:54;;;;;;;8.70;4.80;;;9.40;99.90;;;;;;4980733;28;20034;-73
2022/11/28 01:57:23;;;;;;;9.63;4.72;;;9.40;99.90;;;;;;4982081;28;20041;-75
2022/11/28 01:59:58;;;;;;;5.40;4.43;;;9.50;99.90;;;;;;4981265;28;20101;-74
2022/11/28 02:02:51;;;;;;;7.68;4.22;;;9.50;99.90;;;;;;4982304;28;20102;-75
2022/11/28 02:05:18;;;;;;;9.30;4.72;;;9.60;99.90;;;;;;4981575;28;20050;-74
2022/11/28 02:07:46;;;;;;;7.22;4.35;;;9.50;99.90;;;;;;4984289;28;20030;-73
2022/11/28 02:10:17;;;;;;;7.32;4.70;;;9.40;99.90;;;;;;4981590;28;20026;-74
2022/11/28 02:13:09;;;;;;;6.68;5.13;;;9.40;99.90;;;;;;4984004;28;20700;-73
2022/11/28 02:15:56;;;;;;;9.65;5.45;;;9.30;99.90;;;;;;4955255;28;20045;-73
2022/11/28 02:18:44;;;;;;;13.65;5.38;;;9.40;99.90;;;;;;4980989;28;20568;-73
2022/11/28 02:21:25;;;;;;;12.75;5.82;;;9.30;99.90;;;;;;4981165;28;20034;-72
2022/11/28 02:24:15;;;;;;;11.70;6.35;;;9.30;99.90;;;;;;4998971;28;20364;-71
2022/11/28 02:27:18;;;;;;;11.57;6.70;;;9.30;99.90;;;;;;4983067;28;20034;-71
2022/11/28 02:29:58;;;;;;;13.77;7.00;;;9.30;99.90;;;;;;4984746;28;20030;-73
2022/11/28 02:32:23;;;;;;;16.33;6.97;;;9.20;99.90;;;;;;4982098;28;20038;-73
2022/11/28 02:34:55;;;;;;;13.63;6.78;;;9.10;99.90;;;;;;4982478;28;20026;-75
2022/11/28 02:37:36;;;;;;;18.20;7.63;;;9.10;99.90;;;;;;4981955;28;20200;-74
2022/11/28 02:40:09;;;;;;;13.32;7.07;;;9.20;99.90;;;;;;4983798;28;20015;-72
2022/11/28 02:42:41;;;;;;;10.55;6.72;;;9.20;99.90;;;;;;4997064;28;20402;-71
2022/11/28 02:45:13;;;;;;;9.93;6.60;;;9.20;99.90;;;;;;4988013;28;20057;-72
2022/11/28 02:47:47;;;;;;;11.57;6.68;;;9.20;99.90;;;;;;4985469;28;20066;-71
2022/11/28 02:50:42;;;;;;;22.45;7.65;;;9.20;99.90;;;;;;4986596;28;20625;-71
2022/11/28 02:53:12;;;;;;;15.75;7.60;;;9.20;99.90;;;;;;4983729;28;20117;-70
2022/11/28 02:55:40;;;;;;;16.20;7.88;;;9.20;99.90;;;;;;4984143;28;20014;-71
2022/11/28 02:58:06;;;;;;;16.63;7.82;;;9.20;99.90;;;;;;4983517;28;20018;-70
2022/11/28 03:00:36;;;;;;;14.00;7.63;;;9.20;99.90;;;;;;4984054;28;20443;-73
2022/11/28 03:03:10;;;;;;;14.05;7.50;;;9.10;99.90;;;;;;4983662;28;20026;-73
2022/11/28 03:05:54;;;;;;;12.10;6.82;;;9.10;99.90;;;;;;4982398;28;20127;-74
2022/11/28 03:09:01;;;;;;;11.63;7.22;;;9.20;99.90;;;;;;4980312;28;20034;-71
2022/11/28 03:11:40;;;;;;;15.10;6.57;;;9.10;99.90;;;;;;4925610;29;20086;-71
2022/11/28 03:14:09;;;;;;;10.68;6.63;;;9.00;99.90;;;;;;4995460;28;20061;-71
2022/11/28 03:16:47;;;;;;;10.98;5.60;;;9.00;99.90;;;;;;4984299;28;20039;-77
2022/11/28 03:19:24;;;;;;;8.85;5.75;;;8.90;99.90;;;;;;4983497;28;20106;-73
2022/11/28 03:22:10;;;;;;;11.15;6.30;;;8.90;99.90;;;;;;4984402;28;20085;-74
2022/11/28 03:24:43;;;;;;;11.68;6.70;;;8.90;99.90;;;;;;4985092;28;20076;-71
2022/11/28 03:27:29;;;;;;;14.33;6.97;;;8.70;99.90;;;;;;4984450;28;20348;-72
2022/11/28 03:30:18;;;;;;;10.32;5.80;;;8.80;99.90;;;;;;4988518;28;20036;-75
2022/11/28 03:32:50;;;;;;;13.98;6.22;;;8.80;99.90;;;;;;4976395;28;20046;-71
2022/11/28 03:35:20;;;;;;;10.02;6.13;;;8.80;99.90;;;;;;4991162;28;20049;-73
2022/11/28 03:37:52;;;;;;;9.73;6.15;;;8.80;99.90;;;;;;4988807;28;20733;-71
2022/11/28 03:40:26;;;;;;;9.75;5.90;;;8.80;99.90;;;;;;4987387;28;20022;-73
2022/11/28 03:43:05;;;;;;;10.27;6.40;;;8.80;99.90;;;;;;4984453;28;20521;-71
2022/11/28 03:45:39;;;;;;;12.27;5.63;;;8.80;99.90;;;;;;4986742;28;20038;-71
2022/11/28 03:48:17;;;;;;;11.07;6.78;;;8.70;99.90;;;;;;4986159;28;20022;-70
2022/11/28 03:51:06;;;;;;;10.05;6.70;;;8.70;99.90;;;;;;4987346;28;20019;-72
2022/11/28 03:54:03;;;;;;;11.82;6.30;;;8.70;99.90;;;;;;4987884;28;20348;-72
2022/11/28 03:56:48;;;;;;;14.30;8.05;;;8.70;99.90;;;;;;4982932;28;20579;-74
2022/11/28 03:59:37;;;;;;;10.25;6.70;;;8.70;99.90;;;;;;4981901;28;20621;-71
2022/11/28 04:02:05;;;;;;;13.45;7.90;;;8.70;99.90;;;;;;4984819;28;20180;-72
2022/11/28 04:04:42;;;;;;;16.95;8.32;;;8.70;99.90;;;;;;4986950;28;20053;-72
2022/11/28 04:07:37;;;;;;;12.73;8.45;;;8.70;99.90;;;;;;4986743;28;20030;-72
2022/11/28 04:10:16;;;;;;;19.50;9.02;;;8.70;99.90;;;;;;4986645;28;20257;-70
2022/11/28 04:13:16;;;;;;;14.80;8.27;;;8.70;99.90;;;;;;4983373;28;21571;-71
2022/11/28 04:16:03;;;;;;;21.90;9.77;;;8.80;99.90;;;;;;4985342;28;20018;-71
2022/11/28 04:19:00;;;;;;;17.15;9.00;;;8.80;99.90;;;;;;4985710;28;20586;-72
2022/11/28 04:21:49;;;;;;;13.88;7.80;;;8.80;99.90;;;;;;4987145;28;21277;-69
2022/11/28 04:24:20;;;;;;;18.27;8.30;;;8.70;99.90;;;;;;4984896;28;20151;-71
2022/11/28 04:26:50;;;;;;;14.00;8.30;;;8.80;99.90;;;;;;4981844;28;20045;-74
2022/11/28 04:29:21;;;;;;;16.50;8.95;;;8.80;99.90;;;;;;4985528;28;20110;-72
2022/11/28 04:31:50;;;;;;;15.43;7.93;;;8.80;99.90;;;;;;4982315;28;20027;-72
2022/11/28 04:34:19;;;;;;;17.13;8.80;;;8.70;99.90;;;;;;4984525;28;20033;-72
2022/11/28 04:36:48;;;;;;;14.80;7.82;;;8.70;99.90;;;;;;4984370;28;20030;-72
2022/11/28 04:39:23;;;;;;;17.88;8.20;;;8.70;99.90;;;;;;4983325;28;20160;-72
2022/11/28 04:41:57;;;;;;;18.27;8.93;;;8.80;99.90;;;;;;4984366;28;20023;-72
2022/11/28 04:44:52;;;;;;;15.65;8.90;;;8.80;99.90;;;;;;4983333;28;20106;-72
2022/11/28 04:47:18;;;;;;;19.20;8.88;;;8.80;99.90;;;;;;4976447;28;20038;-71
2022/11/28 04:49:44;;;;;;;14.32;8.10;;;8.80;99.90;;;;;;4985042;28;20443;-72
2022/11/28 04:52:15;;;;;;;17.80;9.05;;;8.80;99.90;;;;;;4984713;28;20047;-72
2022/11/28 04:54:58;;;;;;;18.52;8.50;;;8.80;99.90;;;;;;4985395;28;20033;-70
2022/11/28 04:57:56;;;;;;;14.70;8.57;;;8.80;99.90;;;;;;4984496;28;20046;-72
2022/11/28 05:00:22;;;;;;;17.08;8.73;;;8.80;99.90;;;;;;4985566;28;20466;-72
2022/11/28 05:02:53;;;;;;;15.18;8.15;;;8.70;99.90;;;;;;4986054;28;20069;-71
2022/11/28 05:05:24;;;;;;;15.77;8.63;;;8.70;99.90;;;;;;4983578;28;20113;-71
2022/11/28 05:07:51;;;;;;;17.67;9.13;;;8.70;99.90;;;;;;4982052;28;20054;-71
2022/11/28 05:10:17;;;;;;;21.35;10.07;;;8.70;99.90;;;;;;4985828;28;20411;-71
2022/11/28 05:12:43;;;;;;;25.77;10.30;;;8.70;99.90;;;;;;4982816;28;20169;-71
2022/11/28 05:15:10;;;;;;;19.20;9.90;;;8.70;99.90;;;;;;4999002;28;21010;-71
2022/11/28 05:17:35;;;;;;;20.92;10.15;;;8.70;99.90;;;;;;4985727;28;20053;-71
2022/11/28 05:20:01;;;;;;;16.95;9.70;;;8.80;99.90;;;;;;4985578;28;20026;-71
2022/11/28 05:22:29;;;;;;;17.70;9.57;;;8.70;99.90;;;;;;4982823;28;20031;-71
2022/11/28 05:24:55;;;;;;;19.23;9.15;;;8.70;99.90;;;;;;4983747;28;20081;-71
2022/11/28 05:27:21;;;;;;;17.08;9.75;;;8.80;99.90;;;;;;4982608;28;20064;-71
2022/11/28 05:29:46;;;;;;;16.88;9.32;;;8.70;99.90;;;;;;4984971;28;20076;-70
2022/11/28 05:32:12;;;;;;;17.55;9.75;;;8.70;99.90;;;;;;4985358;28;20134;-71
2022/11/28 05:34:38;;;;;;;17.33;8.75;;;8.70;99.90;;;;;;4982899;28;20029;-71
2022/11/28 05:37:04;;;;;;;17.70;9.35;;;8.70;99.90;;;;;;4981781;28;20018;-70
2022/11/28 05:39:31;;;;;;;16.65;9.23;;;8.60;99.90;;;;;;4982472;28;20019;-71
2022/11/28 05:41:57;;;;;;;19.45;9.77;;;8.70;99.90;;;;;;4980854;28;20053;-71
2022/11/28 05:44:25;;;;;;;17.50;8.40;;;8.70;99.90;;;;;;4982476;28;20061;-72
2022/11/28 05:46:53;;;;;;;18.50;10.02;;;8.80;99.90;;;;;;4985061;28;20432;-72
2022/11/28 05:49:20;;;;;;;16.00;8.50;;;8.80;99.90;;;;;;4982073;28;20407;-72
2022/11/28 05:51:47;;;;;;;15.13;8.68;;;8.70;99.90;;;;;;4984691;28;20054;-70
2022/11/28 05:54:13;;;;;;;13.85;8.32;;;8.70;99.90;;;;;;4983056;28;20033;-71
2022/11/28 05:56:39;;;;;;;16.13;8.05;;;8.70;99.90;;;;;;4984209;28;20101;-72
2022/11/28 05:59:06;;;;;;;16.40;9.43;;;8.70;99.90;;;;;;4985206;28;20109;-72
2022/11/28 06:01:32;;;;;;;15.00;9.15;;;8.70;99.90;;;;;;4980088;28;20034;-71
2022/11/28 06:03:59;;;;;;;15.80;7.97;;;8.70;99.90;;;;;;4981385;28;20015;-71
2022/11/28 06:06:31;;;;;;;21.85;9.27;;;8.70;99.90;;;;;;4982268;28;20071;-71
2022/11/28 06:08:59;;;;;;;15.10;8.98;;;8.70;99.90;;;;;;4983214;28;20078;-71
2022/11/28 06:11:27;;;;;;;18.52;9.20;;;8.70;99.90;;;;;;4981887;28;20081;-71
2022/11/28 06:13:53;;;;;;;16.10;8.95;;;8.60;99.90;;;;;;4979742;28;20113;-72
2022/11/28 06:16:24;;;;;;;22.23;9.30;;;8.70;99.90;;;;;;4984500;28;20026;-71
2022/11/28 06:18:58;;;;;;;14.35;8.13;;;8.70;99.90;;;;;;4981563;28;20022;-71
2022/11/28 06:21:24;;;;;;;15.25;9.38;;;8.70;99.90;;;;;;4982630;28;20660;-70
2022/11/28 06:23:50;;;;;;;19.35;9.57;;;8.70;99.90;;;;;;4980363;28;20027;-71
2022/11/28 06:26:20;;;;;;;16.02;9.13;;;8.70;99.90;;;;;;4984630;28;20044;-71
2022/11/28 06:28:47;;;;;;;17.25;8.77;;;8.70;99.90;;;;;;4984753;28;20549;-70
2022/11/28 06:31:24;;;;;;;16.60;8.73;;;8.70;99.90;;;;;;4983828;28;20337;-71
2022/11/28 06:33:50;;;;;;;16.15;9.07;;;8.70;99.90;;;;;;4980452;28;20494;-69
2022/11/28 06:36:17;;;;;;;19.23;9.70;;;8.70;99.90;;;;;;4984974;28;20025;-70
2022/11/28 06:38:43;;;;;;;18.42;9.18;;;8.70;99.90;;;;;;4985637;28;20027;-72
2022/11/28 06:41:11;;;;;;;18.15;9.43;;;8.80;99.90;;;;;;4983632;28;20037;-71
2022/11/28 06:43:40;;;;;;;19.20;10.27;;;8.80;99.90;;;;;;4979568;28;20435;-70
2022/11/28 06:46:17;;;;;;;17.85;9.48;;;8.80;99.90;;;;;;4981831;28;20451;-71
2022/11/28 06:48:46;;;;;;;17.52;10.45;;;8.80;99.90;;;;;;4982822;28;20241;-71
2022/11/28 06:51:12;;;;;;;16.50;9.73;;;8.70;99.90;;;;;;4982836;28;20577;-69
2022/11/28 06:53:38;;;;;;;22.20;10.75;;;8.70;99.90;;;;;;4982188;28;20030;-71
2022/11/28 06:56:07;;;;;;;19.30;9.30;;;8.80;99.90;;;;;;4981396;28;20168;-70
2022/11/28 06:58:33;;;;;;;23.67;9.55;;;8.80;99.90;;;;;;4981268;28;20022;-71
2022/11/28 07:01:10;;;;;;;18.70;9.60;;;8.80;99.90;;;;;;4985334;28;20055;-71
2022/11/28 07:03:37;;;;;;;20.45;9.68;;;8.80;99.90;;;;;;4985848;28;20475;-72
2022/11/28 07:06:04;;;;;;;19.73;10.57;;;8.80;99.90;;;;;;4985018;28;20026;-71
2022/11/28 07:08:33;;;;;;;17.27;9.43;;;8.90;99.90;;;;;;4984452;28;20030;-71
2022/11/28 07:11:10;;;;;;;20.30;9.80;;;8.80;99.90;;;;;;4987241;28;20030;-71
2022/11/28 07:13:35;;;;;;;18.13;9.38;;;8.80;99.90;;;;;;4985396;28;20015;-71
2022/11/28 07:16:04;;;;;;;16.30;8.82;;;8.80;99.90;;;;;;4986896;28;20029;-71
2022/11/28 07:18:32;;;;;;;14.05;9.25;;;8.80;99.90;;;;;;4987280;28;20420;-70
2022/11/28 07:20:57;;;;;;;16.02;9.07;;;8.90;99.90;;;;;;4986283;28;20030;-68
2022/11/28 07:23:23;;;;;;;21.63;9.07;;;8.80;99.90;;;;;;4984801;28;20066;-71
2022/11/28 07:25:49;;;;;;;20.73;8.57;;;8.80;99.90;;;;;;4985894;28;20045;-71
2022/11/28 07:28:17;;;;;;;18.02;9.50;;;8.70;99.90;;;;;;5003275;28;20034;-70
2022/11/28 07:30:42;;;;;;;11.25;7.93;;;8.80;99.90;;;;;;4984839;28;20046;-71
2022/11/28 07:33:08;;;;;;;14.85;7.53;;;8.70;99.90;;;;;;4987092;28;20034;-70
2022/11/28 07:35:34;;;;;;;14.43;8.55;;;8.60;99.90;;;;;;4986391;28;20030;-71
2022/11/28 07:38:02;;;;;;;12.93;8.18;;;8.70;99.90;;;;;;4986789;28;20086;-71
2022/11/28 07:40:27;;;;;;;12.98;7.47;;;8.70;99.90;;;;;;4987699;28;20327;-71
2022/11/28 07:42:53;;;;;;;17.77;8.45;;;8.70;99.90;;;;;;4987398;28;20117;-71
2022/11/28 07:45:19;;;;;;;16.58;8.00;;;8.70;99.90;;;;;;4983163;28;20034;-70
2022/11/28 07:47:47;;;;;;;15.75;8.63;;;8.70;99.90;;;;;;4987221;28;20045;-71
2022/11/28 07:50:12;;;;;;;20.00;8.68;;;8.70;99.90;;;;;;4988277;28;20584;-71
2022/11/28 07:52:38;;;;;;;14.15;8.25;;;8.70;99.90;;;;;;4984400;28;20035;-70
2022/11/28 07:55:04;;;;;;;12.75;7.97;;;8.70;99.90;;;;;;4985535;28;20038;-70
2022/11/28 07:57:30;;;;;;;16.40;9.13;;;8.60;99.90;;;;;;4984539;28;21383;-70
2022/11/28 07:59:55;;;;;;;16.20;8.50;;;8.70;99.90;;;;;;4986229;28;20023;-70
2022/11/28 08:02:21;;;;;;;17.77;9.23;;;8.70;99.90;;;;;;4985986;28;20034;-72
2022/11/28 08:04:49;;;;;;;12.88;7.93;;;8.70;99.90;;;;;;4983084;28;20046;-71
2022/11/28 08:07:14;;;;;;;14.43;8.68;;;8.70;99.90;;;;;;4985880;28;20096;-71
2022/11/28 08:09:40;;;;;;;18.02;9.02;;;8.80;99.90;;;;;;4984116;28;20030;-72
2022/11/28 08:12:06;;;;;;;12.98;8.68;;;8.90;99.90;;;;;;4984485;28;20109;-71
2022/11/28 08:14:31;;;;;;;13.57;9.13;;;8.80;99.90;;;;;;4982205;28;20452;-71
2022/11/28 08:16:57;;;;;;;16.50;9.60;;;8.80;99.90;;;;;;4985685;28;20037;-71
2022/11/28 08:19:23;;;;;;;15.75;8.95;;;8.90;99.90;;;;;;4986036;28;20118;-71
2022/11/28 08:21:51;;;;;;;18.52;9.32;;;8.90;99.90;;;;;;4985118;28;20056;-71
2022/11/28 08:24:19;;;;;;;14.65;9.02;;;9.00;99.90;;;;;;4986068;28;20038;-71
2022/11/28 08:26:44;;;;;;;14.23;8.65;;;8.90;99.90;;;;;;4986950;28;20053;-71
2022/11/28 08:29:10;;;;;;;19.23;9.27;;;8.90;99.90;;;;;;4984237;28;20108;-72
2022/11/28 08:31:37;;;;;;;16.02;8.85;;;8.90;99.90;;;;;;4983033;28;20906;-70
2022/11/28 08:34:06;;;;;;;16.00;9.40;;;8.90;99.90;;;;;;4984807;28;20041;-71
2022/11/28 08:36:32;;;;;;;14.10;8.57;;;8.90;99.90;;;;;;5003322;28;20023;-72
2022/11/28 08:39:02;;;;;;;11.88;8.18;;;8.90;99.90;;;;;;4983685;28;20456;-71
2022/11/28 08:41:28;;;;;;;16.25;8.45;;;8.80;99.90;;;;;;4986972;28;20034;-71
2022/11/28 08:43:53;;;;;;;14.05;8.55;;;8.90;99.90;;;;;;4985733;28;20034;-71
2022/11/28 08:46:22;;;;;;;17.13;8.98;;;8.90;99.90;;;;;;4983877;28;20058;-71
2022/11/28 08:48:52;;;;;;;16.67;9.50;;;8.90;99.90;;;;;;4985103;28;20030;-70
2022/11/28 08:51:22;;;;;;;13.98;8.80;;;9.00;99.90;;;;;;4984442;28;20034;-71
2022/11/28 08:53:52;;;;;;;16.50;8.75;;;9.00;99.90;;;;;;4983380;28;20076;-70
2022/11/28 08:56:18;;;;;;;16.75;8.75;;;9.00;99.90;;;;;;4981741;28;20015;-72
2022/11/28 08:58:44;;;;;;;16.63;8.60;;;9.00;99.90;;;;;;4985166;28;20140;-71
2022/11/28 09:01:16;;;;;;;18.45;8.95;;;9.00;99.90;;;;;;4984842;28;20023;-72
2022/11/28 09:03:42;;;;;;;15.80;9.20;;;9.00;99.90;;;;;;4984856;28;20018;-70
2022/11/28 09:06:07;;;;;;;16.50;9.05;;;8.90;99.90;;;;;;4984324;28;20197;-71
2022/11/28 09:08:35;;;;;;;25.40;9.65;;;9.00;99.90;;;;;;4982142;28;20038;-72
2022/11/28 09:11:01;;;;;;;18.50;9.13;;;8.90;99.90;;;;;;4984330;28;20121;-70
2022/11/28 09:13:29;;;;;;;19.15;9.95;;;8.90;99.90;;;;;;4984826;28;20109;-71
2022/11/28 09:15:57;;;;;;;15.75;9.32;;;9.00;99.90;;;;;;4986110;28;20018;-70
2022/11/28 09:18:25;;;;;;;16.73;9.93;;;9.00;99.90;;;;;;4982864;28;20496;-71
2022/11/28 09:21:14;;;;;;;15.73;8.75;;;9.10;99.90;;;;;;4981493;28;20041;-71
2022/11/28 09:23:42;;;;;;;16.60;8.88;;;9.20;99.90;;;;;;4984194;28;20023;-71
2022/11/28 09:26:18;;;;;;;16.02;9.10;;;9.20;99.90;;;;;;4981935;28;20659;-71
2022/11/28 09:28:44;;;;;;;15.57;9.27;;;9.20;99.90;;;;;;4984580;28;20041;-72
2022/11/28 09:31:11;;;;;;;26.83;10.07;;;9.10;99.90;;;;;;4981779;28;20034;-71
2022/11/28 09:33:42;;;;;;;18.70;9.30;;;9.10;99.90;;;;;;4983568;28;20050;-70
2022/11/28 09:36:11;;;;;;;18.83;9.40;;;9.10;99.90;;;;;;4982408;28;20115;-71
2022/11/28 09:38:37;;;;;;;16.33;8.23;;;9.10;99.90;;;;;;4984791;28;20058;-70
2022/11/28 09:41:28;;;;;;;17.70;9.90;;;9.10;99.90;;;;;;4984410;28;20031;-71
2022/11/28 09:44:11;;;;;;;18.38;10.57;;;9.20;99.90;;;;;;4981215;28;20034;-71
2022/11/28 09:46:41;;;;;;;17.25;9.52;;;9.20;99.90;;;;;;4981887;28;20463;-70
2022/11/28 09:49:36;;;;;;;14.23;8.43;;;9.20;99.90;;;;;;4983823;28;20551;-71
2022/11/28 09:52:10;;;;;;;15.38;8.77;;;9.30;99.90;;;;;;4981382;28;20113;-70
2022/11/28 09:54:47;;;;;;;18.85;9.20;;;9.30;99.90;;;;;;4981577;28;20041;-71
2022/11/28 09:57:24;;;;;;;20.58;8.98;;;9.30;99.90;;;;;;4982783;28;20025;-71
2022/11/28 09:59:50;;;;;;;14.82;9.60;;;9.10;99.90;;;;;;4983186;28;20027;-71
2022/11/28 10:02:22;;;;;;;16.55;9.50;;;9.20;99.90;;;;;;4983037;28;20527;-70
2022/11/28 10:04:57;;;;;;;18.27;9.75;;;9.30;99.90;;;;;;4982423;28;20010;-71
2022/11/28 10:07:25;;;;;;;17.15;8.75;;;9.30;99.90;;;;;;4982105;28;20460;-70
2022/11/28 10:10:02;;;;;;;15.35;9.20;;;9.20;99.90;;;;;;4983391;28;20034;-71
2022/11/28 10:12:46;;;;;;;16.15;8.77;;;9.30;99.90;;;;;;4983844;28;20038;-71
2022/11/28 10:15:44;;;;;;;19.00;9.75;;;9.20;99.90;;;;;;4981395;28;20031;-71
2022/11/28 10:18:33;;;;;;;14.93;9.15;;;9.20;99.90;;;;;;4928823;28;20062;-71
2022/11/28 10:21:07;;;;;;;13.38;9.23;;;9.30;99.90;;;;;;4982770;28;20118;-71
2022/11/28 10:23:44;;;;;;;22.05;10.60;;;9.40;99.90;;;;;;4998565;28;20066;-71
2022/11/28 10:26:35;;;;;;;17.23;9.57;;;9.30;99.90;;;;;;4984633;28;20441;-71
2022/11/28 10:29:22;;;;;;;16.25;8.80;;;9.30;99.90;;;;;;4984125;28;20053;-71
2022/11/28 10:31:57;;;;;;;16.75;9.52;;;9.30;99.90;;;;;;4983251;28;20130;-71
2022/11/28 10:34:29;;;;;;;18.15;9.65;;;9.40;99.90;;;;;;4999112;28;20022;-71
2022/11/28 10:37:22;;;;;;;17.50;9.67;;;9.40;99.90;;;;;;4988005;28;20467;-71
2022/11/28 10:39:48;;;;;;;;;;;9.40;99.90;;;;;;4988829;28;20276;-71
2022/11/28 10:42:34;;;;;;;22.42;9.80;;;9.30;99.90;;;;;;4987151;28;20020;-71
2022/11/28 10:45:18;;;;;;;17.40;9.60;;;9.40;99.90;;;;;;4982815;28;20022;-71
2022/11/28 10:48:01;;;;;;;18.58;10.05;;;9.30;99.90;;;;;;4985468;28;20035;-71
2022/11/28 10:50:40;;;;;;;15.85;8.82;;;9.40;99.90;;;;;;4986649;28;20555;-71
2022/11/28 10:53:26;;;;;;;15.05;9.30;;;9.40;99.90;;;;;;4987737;28;20029;-71
2022/11/28 10:56:13;;;;;;;17.42;9.43;;;9.40;99.90;;;;;;4985496;28;20525;-70
2022/11/28 10:59:02;;;;;;;18.77;9.10;;;9.50;99.90;;;;;;4986675;28;20074;-70
2022/11/28 11:01:34;;;;;;;18.50;9.57;;;9.50;99.90;;;;;;4985514;28;20023;-70
2022/11/28 11:04:00;;;;;;;18.15;10.43;;;9.50;99.90;;;;;;4987351;28;20472;-70
2022/11/28 11:06:26;;;;;;;16.85;9.73;;;9.40;99.90;;;;;;4984084;28;20118;-68
2022/11/28 11:08:51;;;;;;;14.40;9.88;;;9.30;99.90;;;;;;4982947;28;20065;-68
2022/11/28 11:11:33;;;;;;;21.27;10.77;;;9.30;99.90;;;;;;4986280;28;20023;-71
2022/11/28 11:14:10;;;;;;;15.45;9.75;;;9.50;99.90;;;;;;4986587;28;20356;-70
2022/11/28 11:16:52;;;;;;;15.35;9.50;;;9.60;99.90;;;;;;4985447;28;20033;-69
2022/11/28 11:19:38;;;;;;;20.27;10.48;;;9.60;99.90;;;;;;4986865;28;20068;-69
2022/11/28 11:22:04;;;;;;;16.92;9.88;;;9.60;99.90;;;;;;4986542;28;20093;-70
2022/11/28 11:24:30;;;;;;;16.42;9.80;;;9.60;99.90;;;;;;4986686;28;20059;-71
2022/11/28 11:27:15;;;;;;;15.35;9.57;;;9.60;99.90;;;;;;4985531;28;20069;-69
2022/11/28 11:29:41;;;;;;;16.15;9.43;;;9.70;99.90;;;;;;4986835;28;20031;-70
2022/11/28 11:32:22;;;;;;;21.33;10.32;;;9.70;99.90;;;;;;4988037;28;20089;-70
2022/11/28 11:34:48;;;;;;;16.92;9.50;;;9.80;99.90;;;;;;4986728;28;20035;-70
2022/11/28 11:37:37;;;;;;;20.20;9.63;;;9.90;99.90;;;;;;5000775;28;20112;-72
2022/11/28 11:40:20;;;;;;;20.40;9.57;;;9.80;99.90;;;;;;4984900;28;20189;-69
2022/11/28 11:42:58;;;;;;;19.55;9.88;;;9.80;99.90;;;;;;4986568;28;20037;-69
2022/11/28 11:45:34;;;;;;;18.60;10.27;;;9.90;99.90;;;;;;4985233;28;20105;-70
2022/11/28 11:48:01;;;;;;;15.60;9.95;;;9.80;99.90;;;;;;4987935;28;20061;-72
2022/11/28 11:50:29;;;;;;;17.73;10.25;;;9.90;99.90;;;;;;4989006;28;20049;-70
2022/11/28 11:53:06;;;;;;;16.75;10.25;;;9.80;99.90;;;;;;4985163;28;20019;-72
2022/11/28 11:55:57;;;;;;;17.63;10.57;;;9.90;99.90;;;;;;4987874;28;20038;-69
2022/11/28 11:58:47;;;;;;;17.30;10.23;;;9.90;99.90;;;;;;4986314;28;20030;-69
2022/11/28 12:01:16;;;;;;;17.17;10.13;;;9.90;99.90;;;;;;4984605;28;20041;-70
2022/11/28 12:04:05;;;;;;;17.95;9.90;;;9.90;99.90;;;;;;4966320;28;20037;-71
2022/11/28 12:06:42;;;;;;;17.33;9.77;;;9.80;99.90;;;;;;4984065;28;20519;-71
2022/11/28 12:09:18;;;;;;;23.85;10.48;;;9.80;99.90;;;;;;4988757;28;20448;-70
2022/11/28 12:11:51;;;;;;;18.38;9.88;;;9.80;99.90;;;;;;4983962;28;20035;-70
2022/11/28 12:14:23;;;;;;;14.60;9.18;;;9.80;99.90;;;;;;4984555;28;20113;-70
2022/11/28 12:17:07;;;;;;;20.50;10.15;;;9.80;99.90;;;;;;4984586;28;20443;-70
2022/11/28 12:19:52;;;;;;;18.20;10.38;;;9.80;99.90;;;;;;4986801;28;20345;-71
2022/11/28 12:23:04;;;;;;;19.33;10.07;;;9.90;99.90;;;;;;4985350;28;20049;-71
2022/11/28 12:25:51;;;;;;;15.25;10.13;;;9.80;99.90;;;;;;4959926;28;20162;-70
2022/11/28 12:28:35;;;;;;;14.63;9.68;;;9.80;99.90;;;;;;4953899;28;20034;-71
2022/11/28 12:31:14;;;;;;;17.88;9.32;;;9.90;99.90;;;;;;4958515;28;20465;-71
2022/11/28 12:34:05;;;;;;;14.35;9.27;;;10.00;99.90;;;;;;4958302;28;20043;-70
2022/11/28 12:36:48;;;;;;;17.38;10.68;;;9.90;99.90;;;;;;4962452;28;20122;-70
2022/11/28 12:39:25;;;;;;;13.75;9.40;;;9.90;99.90;;;;;;4960666;28;20123;-71
2022/11/28 12:42:00;;;;;;;20.38;9.85;;;9.80;99.90;;;;;;4963596;28;20219;-70
2022/11/28 12:44:31;;;;;;;16.30;8.82;;;9.80;99.90;;;;;;4960663;28;20042;-71
2022/11/28 12:46:59;;;;;;;13.73;9.25;;;9.90;99.90;;;;;;4960645;28;20033;-70
2022/11/28 12:49:46;;;;;;;18.20;9.40;;;10.00;99.90;;;;;;4962521;28;20031;-71
2022/11/28 12:52:35;;;;;;;14.30;9.75;;;9.90;99.90;;;;;;4940105;28;20457;-71
2022/11/28 12:55:04;;;;;;;16.33;9.98;;;10.00;99.90;;;;;;4957933;28;20035;-71
2022/11/28 12:57:32;;;;;;;19.10;10.13;;;10.10;99.90;;;;;;4983155;28;20042;-70
2022/11/28 13:00:12;;;;;;;19.10;10.55;;;10.10;99.90;;;;;;4982080;28;20479;-71
2022/11/28 13:02:52;;;;;;;14.60;9.80;;;10.10;99.90;;;;;;5001868;28;20046;-73
2022/11/28 13:05:47;;;;;;;16.92;10.13;;;10.00;99.90;;;;;;5003440;28;20042;-71
2022/11/28 13:08:12;;;;;;;16.58;10.18;;;10.10;99.90;;;;;;4993940;28;20046;-71
2022/11/28 13:11:03;;;;;;;17.92;10.05;;;10.20;99.90;;;;;;4992059;28;20044;-72
2022/11/28 13:13:40;;;;;;;15.15;9.50;;;10.10;99.90;;;;;;4992063;28;20058;-73
2022/11/28 13:16:20;;;;;;;21.05;9.88;;;10.10;99.90;;;;;;4984586;28;20019;-71
2022/11/28 13:18:54;;;;;;;13.40;9.88;;;10.10;99.90;;;;;;4985778;28;20051;-72